LBG weather

Paris-Le Bourget Airport
Paris, Île-de-France, France

Public forecast

Using degrees Celsius for public forecast. Weather courtesy of forecast.io.

METAR (pilot weather report)

Retrieved 2019/03/23 08:00 UTC (4 minutes ago):

LFPB 230800Z AUTO VRB03KT 2400 BR BKN004 OVC008 07/06 Q1031 BECMG 9999 NSW BKN014

TAF (pilot weather forecast)

Retrieved 2019/03/23 06:00 UTC (2 hours ago):

TAF LFPB 230500Z 2306/2406 01008KT 0500 FG VV/// BECMG 2307/2309 4000 BR BKN004 BECMG 2309/2311 9999 NSW BKN014 BECMG 2311/2313 BKN020 BECMG 2401/2403 3000 BR BKN002 BECMG 2405/2406 6000 NSW BKN004